createdAt,value
2016-10-01T00:00:07.190Z,996.84
2016-10-01T00:01:07.208Z,996.89
2016-10-01T00:02:07.230Z,996.86
2016-10-01T00:03:07.246Z,996.87
2016-10-01T00:04:07.261Z,996.85
2016-10-01T00:05:07.283Z,996.89
2016-10-01T00:06:07.298Z,996.86
2016-10-01T00:07:07.322Z,996.82
2016-10-01T00:08:07.340Z,996.82
2016-10-01T00:09:07.354Z,996.87
2016-10-01T00:10:07.372Z,996.81
2016-10-01T00:11:07.388Z,996.82
2016-10-01T00:12:07.411Z,996.84
2016-10-01T00:13:07.427Z,996.79
2016-10-01T00:14:07.445Z,996.77
2016-10-01T00:15:07.465Z,996.75
2016-10-01T00:16:07.487Z,996.77
2016-10-01T00:17:07.507Z,996.76
2016-10-01T00:18:07.525Z,996.72
2016-10-01T00:19:07.541Z,996.73
2016-10-01T00:20:07.563Z,996.7
2016-10-01T00:21:07.578Z,996.67
2016-10-01T00:22:07.590Z,996.67
2016-10-01T00:23:07.616Z,996.66
2016-10-01T00:24:07.631Z,996.64
2016-10-01T00:25:07.653Z,996.66
2016-10-01T00:26:07.671Z,996.61
2016-10-01T00:27:07.688Z,996.6
2016-10-01T00:28:07.705Z,996.56
2016-10-01T00:29:07.722Z,996.49
2016-10-01T00:30:07.747Z,996.56
2016-10-01T00:31:07.775Z,996.59
2016-10-01T00:32:07.784Z,996.6
2016-10-01T00:33:07.799Z,996.58
2016-10-01T00:34:07.813Z,996.56
2016-10-01T00:35:07.838Z,996.58
2016-10-01T00:36:07.857Z,996.55
2016-10-01T00:37:07.876Z,996.55
2016-10-01T00:38:07.889Z,996.58
2016-10-01T00:39:07.912Z,996.57
2016-10-01T00:40:07.928Z,996.59
2016-10-01T00:41:07.951Z,996.61
2016-10-01T00:42:07.964Z,996.7
2016-10-01T00:43:07.991Z,996.63
2016-10-01T00:44:08.006Z,996.62
2016-10-01T00:45:08.017Z,996.58
2016-10-01T00:46:08.042Z,996.57
2016-10-01T00:47:08.053Z,996.56
2016-10-01T00:48:08.080Z,996.52
2016-10-01T00:49:08.099Z,996.51
2016-10-01T00:50:08.112Z,996.5
2016-10-01T00:51:08.129Z,996.48
2016-10-01T00:52:08.145Z,996.5
2016-10-01T00:53:08.169Z,996.46
2016-10-01T00:54:08.185Z,996.46
2016-10-01T00:55:08.204Z,996.47
2016-10-01T00:56:08.226Z,996.43
2016-10-01T00:57:08.239Z,996.42
2016-10-01T00:58:08.264Z,996.4
2016-10-01T00:59:08.276Z,996.36
2016-10-01T01:00:08.297Z,996.36
2016-10-01T01:01:08.317Z,996.32
2016-10-01T01:02:08.335Z,996.33
2016-10-01T01:03:08.356Z,996.33
2016-10-01T01:04:08.370Z,996.36
2016-10-01T01:05:08.393Z,996.3
2016-10-01T01:06:08.412Z,996.25
2016-10-01T01:07:08.428Z,996.2
2016-10-01T01:08:08.449Z,996.19
2016-10-01T01:09:08.466Z,996.18
2016-10-01T01:10:08.484Z,996.18
2016-10-01T01:11:08.498Z,996.16
2016-10-01T01:12:08.520Z,996.19
2016-10-01T01:13:08.537Z,996.25
2016-10-01T01:14:08.556Z,996.19
2016-10-01T01:15:08.576Z,996.19
2016-10-01T01:16:08.594Z,996.19
2016-10-01T01:17:08.644Z,996.2
2016-10-01T01:18:08.627Z,996.17
2016-10-01T01:19:08.689Z,996.16
2016-10-01T01:20:08.670Z,996.15
2016-10-01T01:21:08.768Z,996.15
2016-10-01T01:22:08.709Z,996.16
2016-10-01T01:23:08.761Z,996.12
2016-10-01T01:24:08.740Z,996.15
2016-10-01T01:25:08.818Z,996.16
2016-10-01T01:26:08.782Z,996.16
2016-10-01T01:27:08.858Z,996.17
2016-10-01T01:28:08.816Z,996.11
2016-10-01T01:29:08.860Z,996.07
2016-10-01T01:30:08.853Z,996.01
2016-10-01T01:31:08.873Z,995.99
2016-10-01T01:32:08.895Z,995.95
2016-10-01T01:33:08.914Z,995.94
2016-10-01T01:34:08.924Z,995.95
2016-10-01T01:35:08.963Z,995.93
2016-10-01T01:36:08.967Z,995.93
2016-10-01T01:37:08.986Z,995.9
2016-10-01T01:38:09.004Z,995.88
2016-10-01T01:39:09.025Z,995.88
2016-10-01T01:40:09.042Z,995.87
2016-10-01T01:41:09.059Z,995.93
2016-10-01T01:42:09.076Z,995.9
2016-10-01T01:43:09.093Z,995.88
2016-10-01T01:44:09.114Z,995.87
2016-10-01T01:45:09.129Z,995.85
2016-10-01T01:46:09.150Z,995.88
2016-10-01T01:47:09.171Z,995.83
2016-10-01T01:48:09.188Z,995.82
2016-10-01T01:49:09.204Z,995.83
2016-10-01T01:50:09.227Z,995.86
2016-10-01T01:51:09.246Z,995.8
2016-10-01T01:52:09.264Z,995.83
2016-10-01T01:53:09.281Z,995.78
2016-10-01T01:54:09.301Z,995.7
2016-10-01T01:55:09.316Z,995.71
2016-10-01T01:56:09.336Z,995.68
2016-10-01T01:57:09.357Z,995.66
2016-10-01T01:58:09.374Z,995.67
2016-10-01T01:59:09.393Z,995.65
2016-10-01T02:00:09.408Z,995.61
2016-10-01T02:01:09.430Z,995.59
2016-10-01T02:02:09.449Z,995.6
2016-10-01T02:03:09.463Z,995.63
2016-10-01T02:04:09.482Z,995.62
2016-10-01T02:05:09.499Z,995.61
2016-10-01T02:06:09.523Z,995.56
2016-10-01T02:07:09.539Z,995.52
2016-10-01T02:08:09.555Z,995.51
2016-10-01T02:09:09.580Z,995.49
2016-10-01T02:10:09.596Z,995.51
2016-10-01T02:11:09.610Z,995.46
2016-10-01T02:12:09.630Z,995.48
2016-10-01T02:13:09.650Z,995.42
2016-10-01T02:14:09.673Z,995.4
2016-10-01T02:15:09.682Z,995.36
2016-10-01T02:16:09.706Z,995.35
2016-10-01T02:17:09.726Z,995.34
2016-10-01T02:18:09.745Z,995.31
2016-10-01T02:19:09.759Z,995.37
2016-10-01T02:20:09.778Z,995.39
2016-10-01T02:21:09.794Z,995.38
2016-10-01T02:22:09.818Z,995.35
2016-10-01T02:23:09.829Z,995.37
2016-10-01T02:24:09.850Z,995.37
2016-10-01T02:25:09.868Z,995.35
2016-10-01T02:26:09.889Z,995.36
2016-10-01T02:27:09.904Z,995.42
2016-10-01T02:28:09.924Z,995.4
2016-10-01T02:29:09.945Z,995.4
2016-10-01T02:30:09.959Z,995.37
2016-10-01T02:31:09.978Z,995.34
2016-10-01T02:32:09.994Z,995.34
2016-10-01T02:33:10.011Z,995.36
2016-10-01T02:34:10.032Z,995.4
2016-10-01T02:35:10.054Z,995.41
2016-10-01T02:36:10.074Z,995.44
2016-10-01T02:37:10.087Z,995.45
2016-10-01T02:38:10.110Z,995.4
2016-10-01T02:39:10.125Z,995.45
2016-10-01T02:40:10.146Z,995.43
2016-10-01T02:41:10.162Z,995.44
2016-10-01T02:42:10.185Z,995.42
2016-10-01T02:43:10.200Z,995.4
2016-10-01T02:44:10.218Z,995.39
2016-10-01T02:45:10.236Z,995.35
2016-10-01T02:46:10.257Z,995.34
2016-10-01T02:47:10.273Z,995.32
2016-10-01T02:48:10.296Z,995.37
2016-10-01T02:49:10.309Z,995.31
2016-10-01T02:50:10.330Z,995.33
2016-10-01T02:51:10.347Z,995.34
2016-10-01T02:52:10.364Z,995.36
2016-10-01T02:53:10.386Z,995.35
2016-10-01T02:54:10.404Z,995.39
2016-10-01T02:55:10.422Z,995.37
2016-10-01T02:56:10.442Z,995.38
2016-10-01T02:57:10.455Z,995.39
2016-10-01T02:58:10.473Z,995.39
2016-10-01T02:59:10.493Z,995.38
2016-10-01T03:00:10.514Z,995.35
2016-10-01T03:01:10.526Z,995.34
2016-10-01T03:02:10.550Z,995.34
2016-10-01T03:03:10.568Z,995.3
2016-10-01T03:04:10.585Z,995.31
2016-10-01T03:05:10.606Z,995.32
2016-10-01T03:06:10.623Z,995.34
2016-10-01T03:07:10.644Z,995.35
2016-10-01T03:08:10.656Z,995.36
2016-10-01T03:09:10.680Z,995.36
2016-10-01T03:10:10.699Z,995.34
2016-10-01T03:11:10.710Z,995.38
2016-10-01T03:12:10.735Z,995.36
2016-10-01T03:13:10.752Z,995.35
2016-10-01T03:14:10.768Z,995.32
2016-10-01T03:15:10.790Z,995.34
2016-10-01T03:16:10.805Z,995.34
2016-10-01T03:17:10.818Z,995.35
2016-10-01T03:18:10.840Z,995.34
2016-10-01T03:19:10.863Z,995.32
2016-10-01T03:20:10.878Z,995.29
2016-10-01T03:21:10.900Z,995.24
2016-10-01T03:22:10.923Z,995.22
2016-10-01T03:23:10.938Z,995.17
2016-10-01T03:24:10.951Z,995.18
2016-10-01T03:25:10.970Z,995.17
2016-10-01T03:26:10.996Z,995.16
2016-10-01T03:27:11.010Z,995.2
2016-10-01T03:28:11.025Z,995.19
2016-10-01T03:29:11.047Z,995.14
2016-10-01T03:30:11.064Z,995.12
2016-10-01T03:31:11.079Z,995.11
2016-10-01T03:32:11.103Z,995.05
2016-10-01T03:33:11.121Z,995.07
2016-10-01T03:34:11.133Z,995.08
2016-10-01T03:35:11.153Z,995.07
2016-10-01T03:36:11.175Z,995.08
2016-10-01T03:37:11.188Z,995.14
2016-10-01T03:38:11.210Z,995.1
2016-10-01T03:39:11.224Z,995.12
2016-10-01T03:40:11.246Z,995.09
2016-10-01T03:41:11.264Z,995.04
2016-10-01T03:42:11.282Z,995.04
2016-10-01T03:43:11.297Z,995.07
2016-10-01T03:44:11.315Z,995.02
2016-10-01T03:45:11.335Z,995.07
2016-10-01T03:46:11.355Z,995
2016-10-01T03:47:11.372Z,994.99
2016-10-01T03:48:11.390Z,994.95
2016-10-01T03:49:11.413Z,994.97
2016-10-01T03:50:11.430Z,994.9
2016-10-01T03:51:11.447Z,994.92
2016-10-01T03:52:11.466Z,994.9
2016-10-01T03:53:11.481Z,994.89
2016-10-01T03:54:11.503Z,994.87
2016-10-01T03:55:11.515Z,994.84
2016-10-01T03:56:11.541Z,994.79
2016-10-01T03:57:11.556Z,994.77
2016-10-01T03:58:11.569Z,994.79
2016-10-01T03:59:11.590Z,994.83
2016-10-01T04:01:11.620Z,994.77
2016-10-01T04:02:11.642Z,994.83
2016-10-01T04:03:11.658Z,994.84
2016-10-01T04:04:11.678Z,994.9
2016-10-01T04:05:11.695Z,994.87
2016-10-01T04:06:11.716Z,994.85
2016-10-01T04:07:11.730Z,994.78
2016-10-01T04:08:11.751Z,994.78
2016-10-01T04:09:11.769Z,994.8
2016-10-01T04:10:11.788Z,994.76
2016-10-01T04:11:11.807Z,994.79
2016-10-01T04:12:11.820Z,994.83
2016-10-01T04:13:11.842Z,994.82
2016-10-01T04:14:11.860Z,994.82
2016-10-01T04:15:11.877Z,994.87
2016-10-01T04:16:11.900Z,994.84
2016-10-01T04:17:11.918Z,994.84
2016-10-01T04:18:11.944Z,994.81
2016-10-01T04:19:11.948Z,994.78
2016-10-01T04:20:11.972Z,994.78
2016-10-01T04:21:11.987Z,994.76
2016-10-01T04:22:12.003Z,994.75
2016-10-01T04:23:12.023Z,994.73
2016-10-01T04:24:12.041Z,994.67
2016-10-01T04:25:12.058Z,994.64
2016-10-01T04:26:12.081Z,994.64
2016-10-01T04:27:12.092Z,994.6
2016-10-01T04:28:12.113Z,994.58
2016-10-01T04:29:12.129Z,994.56
2016-10-01T04:30:12.148Z,994.53
2016-10-01T04:31:12.167Z,994.52
2016-10-01T04:32:12.191Z,994.5
2016-10-01T04:33:12.206Z,994.51
2016-10-01T04:34:12.229Z,994.55
2016-10-01T04:35:12.244Z,994.52
2016-10-01T04:36:12.259Z,994.53
2016-10-01T04:37:12.281Z,994.52
2016-10-01T04:38:12.295Z,994.56
2016-10-01T04:39:12.313Z,994.58
2016-10-01T04:40:12.337Z,994.62
2016-10-01T04:41:12.355Z,994.61
2016-10-01T04:42:12.366Z,994.63
2016-10-01T04:43:12.392Z,994.62
2016-10-01T04:44:12.407Z,994.66
2016-10-01T04:45:12.419Z,994.73
2016-10-01T04:46:12.443Z,994.74
2016-10-01T04:47:12.461Z,994.7
2016-10-01T04:48:12.480Z,994.68
2016-10-01T04:49:12.500Z,994.69
2016-10-01T04:50:12.520Z,994.67
2016-10-01T04:51:12.535Z,994.62
2016-10-01T04:52:12.554Z,994.66
2016-10-01T04:53:12.571Z,994.66
2016-10-01T04:54:12.593Z,994.65
2016-10-01T04:55:12.609Z,994.59
2016-10-01T04:56:12.629Z,994.57
2016-10-01T04:57:12.639Z,994.52
2016-10-01T04:58:12.660Z,994.47
2016-10-01T04:59:12.676Z,994.47
2016-10-01T05:00:12.700Z,994.46
2016-10-01T05:01:12.719Z,994.43
2016-10-01T05:02:12.736Z,994.44
2016-10-01T05:03:12.758Z,994.46
2016-10-01T05:04:12.771Z,994.46
2016-10-01T05:05:12.785Z,994.54
2016-10-01T05:06:12.806Z,994.55
2016-10-01T05:07:12.828Z,994.49
2016-10-01T05:08:12.846Z,994.49
2016-10-01T05:09:12.863Z,994.48
2016-10-01T05:10:12.879Z,994.43
2016-10-01T05:11:12.896Z,994.43
2016-10-01T05:12:12.917Z,994.44
2016-10-01T05:13:12.937Z,994.43
2016-10-01T05:14:12.950Z,994.37
2016-10-01T05:15:12.971Z,994.28
2016-10-01T05:16:12.990Z,994.29
2016-10-01T05:17:13.007Z,994.22
2016-10-01T05:18:13.022Z,994.22
2016-10-01T05:19:13.047Z,994.21
2016-10-01T05:20:13.062Z,994.14
2016-10-01T05:21:13.077Z,994.16
2016-10-01T05:22:13.101Z,994.13
2016-10-01T05:23:13.119Z,994.11
2016-10-01T05:24:13.137Z,994.18
2016-10-01T05:25:13.153Z,994.14
2016-10-01T05:26:13.174Z,994.18
2016-10-01T05:27:13.191Z,994.17
2016-10-01T05:28:13.208Z,994.18
2016-10-01T05:29:13.229Z,994.2
2016-10-01T05:30:13.250Z,994.22
2016-10-01T05:31:13.266Z,994.3
2016-10-01T05:32:13.281Z,994.29
2016-10-01T05:33:13.299Z,994.35
2016-10-01T05:34:13.315Z,994.35
2016-10-01T05:35:13.339Z,994.44
2016-10-01T05:36:13.355Z,994.45
2016-10-01T05:37:13.375Z,994.42
2016-10-01T05:38:13.399Z,994.45
2016-10-01T05:39:13.410Z,994.39
2016-10-01T05:40:13.427Z,994.35
2016-10-01T05:41:13.446Z,994.31
2016-10-01T05:42:13.466Z,994.29
2016-10-01T05:43:13.491Z,994.28
2016-10-01T05:44:13.498Z,994.31
2016-10-01T05:45:13.519Z,994.34
2016-10-01T05:46:13.535Z,994.37
2016-10-01T05:47:13.553Z,994.4
2016-10-01T05:48:13.574Z,994.4
2016-10-01T05:49:13.593Z,994.43
2016-10-01T05:50:13.611Z,994.37
2016-10-01T05:51:13.627Z,994.33
2016-10-01T05:52:13.642Z,994.31
2016-10-01T05:53:13.666Z,994.36
2016-10-01T05:54:13.681Z,994.29
2016-10-01T05:55:13.698Z,994.38
2016-10-01T05:56:13.717Z,994.35
2016-10-01T05:57:13.738Z,994.35
2016-10-01T05:58:13.752Z,994.37
2016-10-01T05:59:13.775Z,994.35
2016-10-01T06:00:13.787Z,994.39
2016-10-01T06:01:13.808Z,994.37
2016-10-01T06:02:13.826Z,994.35
2016-10-01T06:03:13.843Z,994.41
2016-10-01T06:04:13.859Z,994.38
2016-10-01T06:05:13.874Z,994.41
2016-10-01T06:06:13.901Z,994.39
2016-10-01T06:07:13.913Z,994.39
2016-10-01T06:08:13.935Z,994.38
2016-10-01T06:09:13.954Z,994.39
2016-10-01T06:10:13.975Z,994.37
2016-10-01T06:11:13.987Z,994.41
2016-10-01T06:12:14.013Z,994.35
2016-10-01T06:13:14.024Z,994.35
2016-10-01T06:14:14.045Z,994.35
2016-10-01T06:15:14.066Z,994.37
2016-10-01T06:16:14.082Z,994.34
2016-10-01T06:17:14.100Z,994.33
2016-10-01T06:18:14.120Z,994.3
2016-10-01T06:19:14.133Z,994.33
2016-10-01T06:20:14.159Z,994.34
2016-10-01T06:21:14.177Z,994.36
2016-10-01T06:22:14.191Z,994.31
2016-10-01T06:23:14.214Z,994.29
2016-10-01T06:24:14.229Z,994.3
2016-10-01T06:25:14.247Z,994.25
2016-10-01T06:26:14.265Z,994.24
2016-10-01T06:27:14.282Z,994.26
2016-10-01T06:28:14.306Z,994.25
2016-10-01T06:29:14.320Z,994.28
2016-10-01T06:30:14.340Z,994.25
2016-10-01T06:31:14.358Z,994.27
2016-10-01T06:32:14.378Z,994.25
2016-10-01T06:33:14.394Z,994.27
2016-10-01T06:34:14.409Z,994.24
2016-10-01T06:35:14.430Z,994.24
2016-10-01T06:36:14.450Z,994.22
2016-10-01T06:37:14.468Z,994.22
2016-10-01T06:38:14.481Z,994.22
2016-10-01T06:39:14.505Z,994.17
2016-10-01T06:40:14.523Z,994.18
2016-10-01T06:41:14.543Z,994.14
2016-10-01T06:42:14.553Z,994.11
2016-10-01T06:43:14.578Z,994.09
2016-10-01T06:44:14.595Z,994.08
2016-10-01T06:45:14.612Z,994.08
2016-10-01T06:46:14.632Z,994.05
2016-10-01T06:47:14.649Z,994.02
2016-10-01T06:48:14.672Z,994
2016-10-01T06:49:14.690Z,993.96
2016-10-01T06:50:14.701Z,993.97
2016-10-01T06:51:14.722Z,993.95
2016-10-01T06:52:14.743Z,993.9
2016-10-01T06:53:14.756Z,993.95
2016-10-01T06:54:14.780Z,994.02
2016-10-01T06:55:14.797Z,994.02
2016-10-01T06:56:14.815Z,994.04
2016-10-01T06:57:14.835Z,994.05
2016-10-01T06:58:14.851Z,994.04
2016-10-01T06:59:14.867Z,994.04
2016-10-01T07:00:14.891Z,994.05
2016-10-01T07:01:14.901Z,994.04
2016-10-01T07:02:14.919Z,994.04
2016-10-01T07:03:14.940Z,994.07
2016-10-01T07:04:14.960Z,994
2016-10-01T07:05:14.982Z,993.99
2016-10-01T07:06:14.994Z,994.02
2016-10-01T07:07:15.012Z,994
2016-10-01T07:08:15.037Z,993.92
2016-10-01T07:09:15.059Z,993.92
2016-10-01T07:10:15.070Z,993.96
2016-10-01T07:11:15.087Z,993.94
2016-10-01T07:12:15.109Z,993.94
2016-10-01T07:13:15.126Z,993.89
2016-10-01T07:14:15.146Z,993.9
2016-10-01T07:15:15.159Z,993.87
2016-10-01T07:17:15.203Z,993.9
2016-10-01T07:18:15.221Z,993.85
2016-10-01T07:19:15.234Z,993.89
2016-10-01T07:20:15.252Z,993.88
2016-10-01T07:21:15.276Z,993.9
2016-10-01T07:22:15.293Z,993.89
2016-10-01T07:23:15.311Z,993.92
2016-10-01T07:24:15.329Z,993.91
2016-10-01T07:25:15.345Z,993.92
2016-10-01T07:26:15.369Z,993.88
2016-10-01T07:27:15.390Z,993.87
2016-10-01T07:28:15.402Z,993.86
2016-10-01T07:29:15.426Z,993.87
2016-10-01T07:30:15.442Z,993.8
2016-10-01T07:31:15.460Z,993.84
2016-10-01T07:32:15.479Z,993.81
2016-10-01T07:33:15.496Z,993.87
2016-10-01T07:34:15.516Z,993.85
2016-10-01T07:35:15.534Z,993.84
2016-10-01T07:36:15.560Z,993.85
2016-10-01T07:37:15.572Z,993.86
2016-10-01T07:38:15.585Z,993.84
2016-10-01T07:39:15.610Z,993.84
2016-10-01T07:40:15.625Z,993.83
2016-10-01T07:41:15.648Z,993.86
2016-10-01T07:42:15.662Z,993.87
2016-10-01T07:43:15.685Z,993.87
2016-10-01T07:44:15.699Z,993.85
2016-10-01T07:45:15.723Z,993.86
2016-10-01T07:46:15.738Z,993.78
2016-10-01T07:47:15.760Z,993.84
2016-10-01T07:48:15.780Z,993.83
2016-10-01T07:49:15.793Z,993.81
2016-10-01T07:50:15.818Z,993.82
2016-10-01T07:51:15.834Z,993.82
2016-10-01T07:52:15.856Z,993.82
2016-10-01T07:53:15.867Z,993.77
2016-10-01T07:54:15.887Z,993.78
2016-10-01T07:55:15.904Z,993.74
2016-10-01T07:56:15.926Z,993.77
2016-10-01T07:57:15.943Z,993.76
2016-10-01T07:58:15.964Z,993.71
2016-10-01T07:59:15.983Z,993.73
2016-10-01T08:00:16.000Z,993.72
2016-10-01T08:01:16.023Z,993.76
2016-10-01T08:02:16.038Z,993.7
2016-10-01T08:03:16.055Z,993.73
2016-10-01T08:04:16.076Z,993.7
2016-10-01T08:05:16.099Z,993.7
2016-10-01T08:06:16.113Z,993.69
2016-10-01T08:07:16.129Z,993.68
2016-10-01T08:08:16.153Z,993.67
2016-10-01T08:09:16.168Z,993.68
2016-10-01T08:10:16.186Z,993.72
2016-10-01T08:11:16.209Z,993.72
2016-10-01T08:12:16.223Z,993.68
2016-10-01T08:13:16.245Z,993.69
2016-10-01T08:14:16.264Z,993.7
2016-10-01T08:15:16.284Z,993.73
2016-10-01T08:16:16.299Z,993.69
2016-10-01T08:17:16.316Z,993.69
2016-10-01T08:18:16.340Z,993.67
2016-10-01T08:19:16.360Z,993.7
2016-10-01T08:20:16.372Z,993.68
2016-10-01T08:21:16.390Z,993.67
2016-10-01T08:22:16.413Z,993.65
2016-10-01T08:23:16.429Z,993.63
2016-10-01T08:24:16.452Z,993.64
2016-10-01T08:25:16.471Z,993.64
2016-10-01T08:26:16.493Z,993.65
2016-10-01T08:27:16.506Z,993.7
2016-10-01T08:28:16.530Z,993.7
2016-10-01T08:29:16.545Z,993.64
2016-10-01T08:30:16.567Z,993.72
2016-10-01T08:31:16.585Z,993.69
2016-10-01T08:32:16.598Z,993.66
2016-10-01T08:33:16.622Z,993.71
2016-10-01T08:34:16.642Z,993.71
2016-10-01T08:35:16.662Z,993.7
2016-10-01T08:36:16.675Z,993.72
2016-10-01T08:37:16.696Z,993.72
2016-10-01T08:38:16.716Z,993.71
2016-10-01T08:39:16.735Z,993.76
2016-10-01T08:40:16.752Z,993.77
2016-10-01T08:41:16.772Z,993.79
2016-10-01T08:42:16.790Z,993.79
2016-10-01T08:43:16.808Z,993.8
2016-10-01T08:44:16.830Z,993.82
2016-10-01T08:45:16.846Z,993.8
2016-10-01T08:46:16.869Z,993.75
2016-10-01T08:47:16.888Z,993.79
2016-10-01T08:48:16.907Z,993.78
2016-10-01T08:49:16.920Z,993.75
2016-10-01T08:50:16.944Z,993.74
2016-10-01T08:51:16.963Z,993.75
2016-10-01T08:52:16.985Z,993.75
2016-10-01T08:53:17.000Z,993.73
2016-10-01T08:54:17.017Z,993.76
2016-10-01T08:55:17.035Z,993.78
2016-10-01T08:56:17.057Z,993.79
2016-10-01T08:57:17.075Z,993.78
2016-10-01T08:58:17.099Z,993.78
2016-10-01T08:59:17.122Z,993.78
2016-10-01T09:00:17.128Z,993.79
2016-10-01T09:01:17.149Z,993.78
2016-10-01T09:02:17.167Z,993.79
2016-10-01T09:03:17.191Z,993.75
2016-10-01T09:04:17.210Z,993.74
2016-10-01T09:05:17.226Z,993.7
2016-10-01T09:06:17.246Z,993.64
2016-10-01T09:07:17.266Z,993.61
2016-10-01T09:08:17.283Z,993.63
2016-10-01T09:09:17.300Z,993.66
2016-10-01T09:10:17.326Z,993.66
2016-10-01T09:11:17.343Z,993.65
2016-10-01T09:12:17.359Z,993.67
2016-10-01T09:13:17.383Z,993.64
2016-10-01T09:14:17.397Z,993.66
2016-10-01T09:15:17.421Z,993.62
2016-10-01T09:16:17.442Z,993.64
2016-10-01T09:17:17.458Z,993.61
2016-10-01T09:18:17.481Z,993.66
2016-10-01T09:19:17.500Z,993.64
2016-10-01T09:20:17.516Z,993.63
2016-10-01T09:21:17.540Z,993.64
2016-10-01T09:22:17.556Z,993.62
2016-10-01T09:23:17.574Z,993.65
2016-10-01T09:24:17.594Z,993.6
2016-10-01T09:25:17.616Z,993.62
2016-10-01T09:26:17.637Z,993.6
2016-10-01T09:27:17.649Z,993.58
2016-10-01T09:28:17.671Z,993.55
2016-10-01T09:29:17.690Z,993.52
2016-10-01T09:30:17.711Z,993.51
2016-10-01T09:31:17.732Z,993.51
2016-10-01T09:32:17.753Z,993.48
2016-10-01T09:33:17.771Z,993.45
2016-10-01T09:34:17.807Z,993.42
2016-10-01T09:35:17.808Z,993.45
2016-10-01T09:36:17.826Z,993.41
2016-10-01T09:37:17.842Z,993.41
2016-10-01T09:38:17.863Z,993.39
2016-10-01T09:39:17.883Z,993.37
2016-10-01T09:40:17.899Z,993.34
2016-10-01T09:41:17.928Z,993.36
2016-10-01T09:42:17.946Z,993.37
2016-10-01T09:43:17.975Z,993.33
2016-10-01T09:44:18.261Z,993.41
2016-10-01T09:45:17.999Z,993.38
2016-10-01T09:46:18.017Z,993.4
2016-10-01T09:47:18.037Z,993.35
2016-10-01T09:48:18.060Z,993.35
2016-10-01T09:49:18.080Z,993.35
2016-10-01T09:50:18.097Z,993.33
2016-10-01T09:51:18.114Z,993.31
2016-10-01T09:52:18.133Z,993.32
2016-10-01T09:53:18.157Z,993.32
2016-10-01T09:54:18.176Z,993.35
2016-10-01T09:55:18.192Z,993.33
2016-10-01T09:56:18.216Z,993.37
2016-10-01T09:57:18.235Z,993.38
2016-10-01T09:58:18.251Z,993.36
2016-10-01T09:59:18.274Z,993.35
2016-10-01T10:00:18.291Z,993.31
2016-10-01T10:01:18.305Z,993.32
2016-10-01T10:02:18.332Z,993.33
2016-10-01T10:03:18.344Z,993.3
2016-10-01T10:04:18.364Z,993.27
2016-10-01T10:05:18.387Z,993.25
2016-10-01T10:06:18.407Z,993.25
2016-10-01T10:07:18.429Z,993.22
2016-10-01T10:08:18.445Z,993.25
2016-10-01T10:09:18.464Z,993.25
2016-10-01T10:10:18.484Z,993.25
2016-10-01T10:11:18.503Z,993.21
2016-10-01T10:12:18.521Z,993.24
2016-10-01T10:13:18.540Z,993.21
2016-10-01T10:14:18.563Z,993.18
2016-10-01T10:15:18.580Z,993.2
2016-10-01T10:16:18.595Z,993.21
2016-10-01T10:17:18.617Z,993.24
2016-10-01T10:18:18.639Z,993.24
2016-10-01T10:19:18.660Z,993.29
2016-10-01T10:20:18.678Z,993.3
2016-10-01T10:21:18.697Z,993.29
2016-10-01T10:22:18.718Z,993.27
2016-10-01T10:23:18.734Z,993.29
2016-10-01T10:24:18.755Z,993.26
2016-10-01T10:25:18.774Z,993.2
2016-10-01T10:26:18.792Z,993.22
2016-10-01T10:27:18.807Z,993.18
2016-10-01T10:28:18.832Z,993.15
2016-10-01T10:29:18.853Z,993.18
2016-10-01T10:30:18.868Z,993.16
2016-10-01T10:31:18.885Z,993.18
2016-10-01T10:32:18.910Z,993.17
2016-10-01T10:33:18.926Z,993.14
2016-10-01T10:34:18.943Z,993.15
2016-10-01T10:35:18.965Z,993.13
2016-10-01T10:36:18.987Z,993.13
2016-10-01T10:37:19.006Z,993.14
2016-10-01T10:38:19.028Z,993.13
2016-10-01T10:39:19.040Z,993.07
2016-10-01T10:40:19.057Z,993.07
2016-10-01T10:41:19.078Z,992.99
2016-10-01T10:42:19.104Z,992.95
2016-10-01T10:43:19.124Z,992.95
2016-10-01T10:44:19.138Z,992.94
2016-10-01T10:45:19.162Z,992.95
2016-10-01T10:46:19.176Z,992.97
2016-10-01T10:47:19.200Z,992.93
2016-10-01T10:48:19.223Z,992.9
2016-10-01T10:49:19.236Z,992.96
2016-10-01T10:50:19.257Z,992.99
2016-10-01T10:51:19.284Z,993.07
2016-10-01T10:52:19.301Z,993.12
2016-10-01T10:53:19.319Z,993.13
2016-10-01T10:54:19.333Z,993.17
2016-10-01T10:55:19.356Z,993.1
2016-10-01T10:56:19.376Z,993.01
2016-10-01T10:57:19.391Z,992.94
2016-10-01T10:58:19.413Z,992.87
2016-10-01T10:59:19.435Z,992.87
2016-10-01T11:00:19.457Z,992.84
2016-10-01T11:01:19.473Z,992.84
2016-10-01T11:02:19.493Z,992.86
2016-10-01T11:03:19.515Z,992.88
2016-10-01T11:04:19.534Z,992.88
2016-10-01T11:05:19.552Z,992.85
2016-10-01T11:06:19.570Z,992.84
2016-10-01T11:07:19.591Z,992.87
2016-10-01T11:08:19.607Z,992.85
2016-10-01T11:09:19.628Z,992.84
2016-10-01T11:10:19.643Z,992.84
2016-10-01T11:11:19.668Z,992.82
2016-10-01T11:12:19.686Z,992.82
2016-10-01T11:13:19.702Z,992.76
2016-10-01T11:14:19.724Z,992.77
2016-10-01T11:15:19.750Z,992.67
2016-10-01T11:16:19.760Z,992.69
2016-10-01T11:17:19.788Z,992.7
2016-10-01T11:18:19.801Z,992.68
2016-10-01T11:19:19.822Z,992.69
2016-10-01T11:20:19.847Z,992.69
2016-10-01T11:21:19.860Z,992.7
2016-10-01T11:22:19.883Z,992.72
2016-10-01T11:23:19.904Z,992.68
2016-10-01T11:24:19.924Z,992.72
2016-10-01T11:25:19.948Z,992.67
2016-10-01T11:26:19.962Z,992.68
2016-10-01T11:27:19.983Z,992.59
2016-10-01T11:28:19.999Z,992.62
2016-10-01T11:29:20.025Z,992.63
2016-10-01T11:30:20.042Z,992.6
2016-10-01T11:31:20.062Z,992.57
2016-10-01T11:32:20.082Z,992.57
2016-10-01T11:33:20.099Z,992.58
2016-10-01T11:34:20.123Z,992.57
2016-10-01T11:35:20.138Z,992.59
2016-10-01T11:36:20.164Z,992.54
2016-10-01T11:37:20.179Z,992.6
2016-10-01T11:38:20.204Z,992.59
2016-10-01T11:39:20.220Z,992.54
2016-10-01T11:40:20.242Z,992.55
2016-10-01T11:41:20.259Z,992.55
2016-10-01T11:42:20.280Z,992.55
2016-10-01T11:43:20.300Z,992.53
2016-10-01T11:44:20.323Z,992.51
2016-10-01T11:45:20.343Z,992.52
2016-10-01T11:46:20.362Z,992.51
2016-10-01T11:47:20.385Z,992.49
2016-10-01T11:48:20.398Z,992.47
2016-10-01T11:49:20.417Z,992.46
2016-10-01T11:50:20.439Z,992.44
2016-10-01T11:51:20.460Z,992.42
2016-10-01T11:52:20.479Z,992.39
2016-10-01T11:53:20.510Z,992.38
2016-10-01T11:54:20.521Z,992.37
2016-10-01T11:55:20.544Z,992.35
2016-10-01T11:56:20.562Z,992.33
2016-10-01T11:57:20.578Z,992.32
2016-10-01T11:58:20.605Z,992.3
2016-10-01T11:59:20.625Z,992.31
2016-10-01T12:00:20.643Z,992.31
2016-10-01T12:01:20.663Z,992.32
2016-10-01T12:02:20.686Z,992.33
2016-10-01T12:03:20.706Z,992.31
2016-10-01T12:04:20.723Z,992.29
2016-10-01T12:05:20.744Z,992.35
2016-10-01T12:06:20.767Z,992.34
2016-10-01T12:07:20.779Z,992.35
2016-10-01T12:08:20.799Z,992.41
2016-10-01T12:09:20.821Z,992.4
2016-10-01T12:10:20.846Z,992.38
2016-10-01T12:11:20.868Z,992.4
2016-10-01T12:12:20.887Z,992.37
2016-10-01T12:13:20.906Z,992.37
2016-10-01T12:14:20.924Z,992.34
2016-10-01T12:15:20.938Z,992.32
2016-10-01T12:16:20.964Z,992.3
2016-10-01T12:17:20.986Z,992.31
2016-10-01T12:18:21.007Z,992.28
2016-10-01T12:19:21.025Z,992.26
2016-10-01T12:20:21.044Z,992.19
2016-10-01T12:21:21.073Z,992.2
2016-10-01T12:22:21.088Z,992.16
2016-10-01T12:23:21.104Z,992.14
2016-10-01T12:24:21.126Z,992.11
2016-10-01T12:25:21.148Z,992.05
2016-10-01T12:26:21.167Z,992.05
2016-10-01T12:27:21.189Z,992
2016-10-01T12:28:21.212Z,991.99
2016-10-01T12:29:21.225Z,992.02
2016-10-01T12:30:21.249Z,992.02
2016-10-01T12:31:21.270Z,992.02
2016-10-01T12:32:21.294Z,992.01
2016-10-01T12:33:21.306Z,992.04